Time;durP1;ratioP1;P1;durP2;ratioP2;P2;SDS_P1;SDS_P2;PMS_P1;PMS_P2;Temp;Humidity;BMP_temperature;BMP_pressure;BME280_temperature;BME280_humidity;BME280_pressure;Samples;Min_cycle;Max_cycle;Signal;HPM_P1;HPM_P2
2022/01/05 00:01:57;;;;;;;10.75;2.10;;;;;;;2.89;100.00;99968.66;10465741;28;20504;-55
2022/01/05 00:07:00;;;;;;;10.68;2.63;;;;;;;2.92;100.00;99968.56;10457558;28;20049;-54
2022/01/05 00:12:03;;;;;;;10.45;3.22;;;;;;;2.89;100.00;99969.53;10458073;28;20083;-57
2022/01/05 00:17:05;;;;;;;12.30;2.72;;;;;;;2.81;100.00;99966.41;10457923;28;20045;-56
2022/01/05 00:22:08;;;;;;;15.45;3.50;;;;;;;2.64;100.00;99968.75;10457301;28;20052;-54
2022/01/05 00:27:10;;;;;;;10.77;1.85;;;;;;;2.77;100.00;99952.75;10456499;28;20478;-57
2022/01/05 00:32:12;;;;;;;8.35;1.98;;;;;;;2.71;100.00;99957.31;10457134;28;20078;-53
2022/01/05 00:37:15;;;;;;;10.75;2.20;;;;;;;2.57;100.00;99968.16;10457421;28;20084;-55
2022/01/05 00:42:17;;;;;;;12.85;1.70;;;;;;;2.56;100.00;99975.06;10464661;28;20067;-55
2022/01/05 00:47:20;;;;;;;14.13;2.22;;;;;;;2.50;100.00;99972.72;10457276;28;20052;-57
2022/01/05 00:52:23;;;;;;;12.25;2.05;;;;;;;2.32;100.00;99975.97;10456870;28;20052;-55
2022/01/05 00:57:25;;;;;;;16.17;2.10;;;;;;;2.40;100.00;99972.22;10456991;28;20049;-53
2022/01/05 01:02:27;;;;;;;12.65;1.95;;;;;;;2.26;100.00;99992.53;10456962;28;20049;-55
2022/01/05 01:07:30;;;;;;;12.18;2.22;;;;;;;2.51;100.00;99991.66;10456282;28;20508;-58
2022/01/05 01:12:34;;;;;;;13.38;2.33;;;;;;;2.39;99.71;100001.53;10455891;28;20392;-56
2022/01/05 01:17:36;;;;;;;12.55;2.65;;;;;;;2.35;100.00;99997.38;10456312;28;20045;-56
2022/01/05 01:22:39;;;;;;;12.32;2.00;;;;;;;2.18;100.00;99990.22;10463263;28;20057;-57
2022/01/05 01:27:43;;;;;;;9.95;2.97;;;;;;;2.16;100.00;100001.53;10456048;28;20049;-57
2022/01/05 01:32:45;;;;;;;10.85;1.85;;;;;;;1.93;100.00;100005.72;10455623;28;20064;-54
2022/01/05 01:37:47;;;;;;;10.38;2.58;;;;;;;1.92;100.00;100011.81;10457888;28;20049;-57
2022/01/05 01:42:50;;;;;;;18.75;2.65;;;;;;;1.88;100.00;100010.22;10463376;28;20044;-55
2022/01/05 01:47:52;;;;;;;18.20;2.65;;;;;;;1.83;100.00;100007.81;10464108;28;20056;-55
2022/01/05 01:52:55;;;;;;;13.00;2.55;;;;;;;1.66;100.00;100007.50;10463215;28;20071;-54
2022/01/05 01:57:57;;;;;;;14.30;3.08;;;;;;;1.69;100.00;100011.75;10462898;28;20481;-53
2022/01/05 02:03:00;;;;;;;9.18;2.30;;;;;;;1.86;100.00;100015.41;10469030;28;20045;-55
2022/01/05 02:08:03;;;;;;;8.00;1.75;;;;;;;1.90;100.00;100016.19;10462572;28;20059;-53
2022/01/05 02:13:05;;;;;;;10.23;3.65;;;;;;;1.83;100.00;100017.25;10462975;28;20060;-54
2022/01/05 02:18:21;;;;;;;17.35;2.92;;;;;;;1.98;100.00;100015.91;10462066;28;20053;-55
2022/01/05 02:23:24;;;;;;;14.30;3.45;;;;;;;1.83;100.00;100014.69;10462441;28;20135;-54
2022/01/05 02:28:26;;;;;;;16.58;3.50;;;;;;;1.84;100.00;100018.97;10461656;28;20053;-57
2022/01/05 02:33:28;;;;;;;12.57;2.42;;;;;;;1.85;100.00;100015.50;10460329;28;20049;-53
2022/01/05 02:38:31;;;;;;;15.93;2.80;;;;;;;1.85;100.00;100016.34;10465815;28;20063;-56
2022/01/05 02:43:37;;;;;;;15.68;2.58;;;;;;;1.81;100.00;100025.06;10462200;28;20055;-53
2022/01/05 02:48:40;;;;;;;13.73;2.83;;;;;;;1.75;100.00;100030.44;10460013;28;20048;-55
2022/01/05 02:53:43;;;;;;;13.85;2.80;;;;;;;1.76;100.00;100024.38;10460953;28;20049;-51
2022/01/05 02:58:45;;;;;;;11.18;2.63;;;;;;;1.82;99.27;100031.91;10458934;28;20416;-54
2022/01/05 03:03:47;;;;;;;10.10;2.60;;;;;;;1.71;99.97;100036.59;10460356;28;20049;-55
2022/01/05 03:08:50;;;;;;;9.93;2.60;;;;;;;1.79;100.00;100029.44;10460146;28;20052;-55
2022/01/05 03:13:52;;;;;;;12.65;3.20;;;;;;;1.75;99.89;100048.50;10459869;28;20492;-55
2022/01/05 03:18:55;;;;;;;8.45;2.15;;;;;;;1.69;100.00;100042.72;10464330;28;20052;-56
2022/01/05 03:23:57;;;;;;;10.98;2.33;;;;;;;1.73;100.00;100044.28;10459262;28;20405;-54
2022/01/05 03:29:00;;;;;;;10.55;2.40;;;;;;;1.59;100.00;100044.75;10459390;28;20049;-54
2022/01/05 03:34:04;;;;;;;13.38;3.35;;;;;;;1.74;100.00;100059.72;10459235;28;20049;-53
2022/01/05 03:39:07;;;;;;;10.38;2.10;;;;;;;1.62;99.50;100065.28;10459033;28;20064;-54
2022/01/05 03:44:09;;;;;;;11.60;2.92;;;;;;;1.65;99.63;100070.34;10458762;28;20067;-53
2022/01/05 03:49:12;;;;;;;12.48;2.78;;;;;;;1.48;98.58;100070.91;10458379;28;20059;-55
2022/01/05 03:54:14;;;;;;;13.18;2.75;;;;;;;1.60;97.91;100062.75;10458344;28;20056;-56
2022/01/05 03:59:16;;;;;;;15.88;3.13;;;;;;;1.53;98.92;100066.44;10463988;28;20507;-53
2022/01/05 04:04:19;;;;;;;14.82;2.53;;;;;;;1.52;99.86;100077.63;10457713;28;20401;-55
2022/01/05 04:09:21;;;;;;;13.10;2.42;;;;;;;1.49;99.65;100080.31;10457824;28;20133;-56
2022/01/05 04:14:23;;;;;;;8.90;2.70;;;;;;;1.48;100.00;100094.13;10457729;28;20049;-56
2022/01/05 04:19:25;;;;;;;12.88;2.30;;;;;;;1.40;99.68;100089.19;10457307;28;20496;-55
2022/01/05 04:24:28;;;;;;;11.68;2.35;;;;;;;1.33;99.11;100090.25;10456923;28;20052;-55
2022/01/05 04:29:30;;;;;;;13.27;3.22;;;;;;;1.34;100.00;100097.09;10457177;28;20052;-55
2022/01/05 04:34:33;;;;;;;8.43;2.47;;;;;;;1.34;100.00;100091.09;10457773;28;20052;-57
2022/01/05 04:39:56;;;;;;;11.75;2.35;;;;;;;1.39;99.54;100096.97;10464546;28;20080;-55
2022/01/05 04:44:58;;;;;;;6.35;1.77;;;;;;;1.37;100.00;100081.53;10456541;28;20041;-55
2022/01/05 04:50:01;;;;;;;12.85;2.80;;;;;;;1.25;100.00;100082.75;10456549;28;20053;-55
2022/01/05 04:55:03;;;;;;;12.45;2.58;;;;;;;1.29;100.00;100083.50;10456656;28;20059;-54
2022/01/05 05:00:06;;;;;;;9.43;2.42;;;;;;;1.29;99.94;100084.34;10456539;28;20049;-53
2022/01/05 05:05:09;;;;;;;18.15;3.08;;;;;;;1.31;100.00;100089.44;10456359;28;20057;-51
2022/01/05 05:10:11;;;;;;;19.23;3.47;;;;;;;1.25;100.00;100097.38;10456350;28;20049;-55
2022/01/05 05:15:13;;;;;;;12.57;2.20;;;;;;;1.34;100.00;100091.09;10469631;28;20059;-57
2022/01/05 05:20:16;;;;;;;16.75;3.05;;;;;;;1.36;100.00;100086.72;10464674;28;20060;-54
2022/01/05 05:25:18;;;;;;;25.30;2.92;;;;;;;1.27;100.00;100086.13;10464122;28;20400;-55
2022/01/05 05:30:23;;;;;;;20.23;2.88;;;;;;;1.35;100.00;100096.22;10464220;28;20087;-56
2022/01/05 05:35:26;;;;;;;15.40;4.22;;;;;;;1.41;100.00;100103.78;10464857;28;20052;-55
2022/01/05 05:40:28;;;;;;;22.48;3.40;;;;;;;1.33;100.00;100095.41;10463280;28;20053;-53
2022/01/05 05:45:31;;;;;;;11.88;3.25;;;;;;;1.39;100.00;100099.53;10463480;28;20049;-52
2022/01/05 05:50:33;;;;;;;20.52;3.45;;;;;;;1.37;100.00;100096.16;10463284;28;20110;-52
2022/01/05 05:55:36;;;;;;;12.63;3.67;;;;;;;1.39;100.00;100105.53;10469631;28;20501;-53
2022/01/05 06:00:38;;;;;;;13.75;3.13;;;;;;;1.40;100.00;100101.25;10462861;28;20049;-53
2022/01/05 06:05:40;;;;;;;25.20;3.45;;;;;;;1.42;100.00;100108.03;10462515;28;20053;-52
2022/01/05 06:10:43;;;;;;;13.93;2.90;;;;;;;1.33;100.00;100112.63;10461120;28;20460;-54
2022/01/05 06:15:45;;;;;;;24.17;4.13;;;;;;;1.44;100.00;100121.72;10462314;28;20049;-53
2022/01/05 06:20:47;;;;;;;13.68;3.80;;;;;;;1.57;100.00;100103.28;10461694;28;20499;-54
2022/01/05 06:25:50;;;;;;;19.38;3.25;;;;;;;1.58;100.00;100111.00;10460849;28;20400;-53
2022/01/05 06:30:52;;;;;;;21.60;3.03;;;;;;;1.68;100.00;100124.44;10463848;28;20049;-57
2022/01/05 06:35:54;;;;;;;17.63;3.53;;;;;;;1.89;100.00;100138.41;10466220;28;20049;-54
2022/01/05 06:40:57;;;;;;;15.80;3.20;;;;;;;1.85;100.00;100116.16;10461120;28;20053;-53
2022/01/05 06:45:59;;;;;;;15.70;3.42;;;;;;;1.83;100.00;100123.97;10461510;28;20052;-56
2022/01/05 06:51:02;;;;;;;14.15;3.63;;;;;;;2.03;100.00;100137.94;10460985;28;20053;-54
2022/01/05 06:56:04;;;;;;;15.93;3.30;;;;;;;2.06;100.00;100139.59;10460751;28;20049;-56
2022/01/05 07:01:07;;;;;;;14.75;3.03;;;;;;;2.13;100.00;100149.66;10460289;28;20126;-55
2022/01/05 07:06:09;;;;;;;16.48;3.85;;;;;;;2.14;100.00;100133.28;10458688;28;20396;-56
2022/01/05 07:11:11;;;;;;;20.30;3.67;;;;;;;2.23;100.00;100163.13;10459919;28;20059;-55
2022/01/05 07:16:14;;;;;;;12.50;2.65;;;;;;;2.31;100.00;100166.31;10459975;28;20060;-56
2022/01/05 07:21:16;;;;;;;25.20;3.47;;;;;;;2.42;100.00;100171.09;10459502;28;20128;-53
2022/01/05 07:26:19;;;;;;;14.50;3.33;;;;;;;2.49;100.00;100174.31;10459230;28;20052;-54
2022/01/05 07:31:21;;;;;;;15.98;3.50;;;;;;;2.51;100.00;100181.13;10459148;28;20397;-56
2022/01/05 07:36:24;;;;;;;16.98;3.00;;;;;;;2.55;100.00;100177.53;10459236;28;20460;-55
2022/01/05 07:41:26;;;;;;;21.17;4.40;;;;;;;2.62;100.00;100175.59;10458533;28;20076;-54
2022/01/05 07:46:29;;;;;;;18.58;3.33;;;;;;;2.71;100.00;100188.22;10458819;28;20049;-57
2022/01/05 07:51:32;;;;;;;18.10;3.35;;;;;;;2.71;100.00;100189.97;10460194;28;20048;-55
2022/01/05 07:56:34;;;;;;;16.73;2.45;;;;;;;2.91;100.00;100179.75;10463219;28;20057;-56
2022/01/05 08:01:37;;;;;;;17.65;3.25;;;;;;;3.07;100.00;100190.38;10458721;28;20072;-55
2022/01/05 08:06:39;;;;;;;11.68;2.80;;;;;;;3.22;98.72;100186.41;10457788;28;20067;-55
2022/01/05 08:11:42;;;;;;;17.70;3.55;;;;;;;3.22;98.65;100194.16;10457449;28;20525;-55
2022/01/05 08:16:44;;;;;;;19.48;5.30;;;;;;;3.22;99.25;100193.31;10457484;28;20056;-58
2022/01/05 08:21:46;;;;;;;13.35;2.97;;;;;;;3.27;98.96;100209.53;10458129;28;20048;-56
2022/01/05 08:26:49;;;;;;;14.65;3.30;;;;;;;3.49;96.89;100213.00;10457101;28;20400;-56
2022/01/05 08:31:51;;;;;;;20.02;3.38;;;;;;;3.46;97.78;100207.97;10457061;28;20048;-57
2022/01/05 08:36:54;;;;;;;19.85;3.47;;;;;;;3.43;97.81;100208.06;10456216;28;20107;-57
2022/01/05 08:41:56;;;;;;;14.50;3.08;;;;;;;3.42;100.00;100206.38;10456685;28;20429;-55
2022/01/05 08:46:59;;;;;;;24.65;3.75;;;;;;;3.55;100.00;100204.16;10456118;28;20413;-55
2022/01/05 08:52:01;;;;;;;14.82;3.45;;;;;;;3.49;100.00;100219.94;10456686;28;20044;-56
2022/01/05 08:57:04;;;;;;;18.58;3.85;;;;;;;3.38;100.00;100227.22;10456590;28;20500;-59
2022/01/05 09:02:07;;;;;;;13.13;3.33;;;;;;;3.41;100.00;100227.97;10456748;28;20057;-54
2022/01/05 09:07:10;;;;;;;20.48;4.50;;;;;;;3.40;100.00;100238.41;10456240;28;20081;-55
2022/01/05 09:12:13;;;;;;;23.00;4.93;;;;;;;3.31;100.00;100240.41;10460885;28;20120;-56
2022/01/05 09:17:15;;;;;;;21.35;3.90;;;;;;;3.30;100.00;100249.06;10455611;28;20083;-56
2022/01/05 09:22:18;;;;;;;22.73;4.53;;;;;;;3.30;100.00;100254.25;10455834;28;20436;-56
2022/01/05 09:27:23;;;;;;;21.27;4.28;;;;;;;3.30;100.00;100262.00;10454704;28;20508;-55
2022/01/05 09:32:26;;;;;;;22.38;4.00;;;;;;;3.34;100.00;100254.97;10455879;28;20432;-52
2022/01/05 09:37:33;;;;;;;16.63;4.15;;;;;;;3.37;100.00;100262.63;10455755;28;20057;-56
2022/01/05 09:42:37;;;;;;;11.88;3.65;;;;;;;3.40;100.00;100265.09;10455376;28;20061;-54
2022/01/05 09:47:48;;;;;;;22.98;4.80;;;;;;;3.39;100.00;100285.88;10456020;28;20045;-55
2022/01/05 09:52:50;;;;;;;17.17;4.20;;;;;;;3.40;100.00;100266.88;10463032;28;20049;-55
2022/01/05 09:57:53;;;;;;;22.42;3.25;;;;;;;3.45;100.00;100270.97;10456073;28;20283;-56
2022/01/05 10:02:55;;;;;;;19.80;3.80;;;;;;;3.50;100.00;100284.56;10461400;28;20107;-55
2022/01/05 10:07:58;;;;;;;18.55;4.68;;;;;;;3.46;100.00;100287.31;10462559;28;20057;-55
2022/01/05 10:13:00;;;;;;;20.23;4.50;;;;;;;3.31;100.00;100297.34;10462252;28;20401;-57
2022/01/05 10:18:22;;;;;;;28.60;4.65;;;;;;;3.42;100.00;100273.66;10462287;28;20059;-58
2022/01/05 10:23:33;;;;;;;22.17;4.38;;;;;;;3.49;100.00;100302.75;10461316;28;20045;-57
2022/01/05 10:28:36;;;;;;;14.55;4.25;;;;;;;3.67;100.00;100302.06;10461779;28;20405;-57
2022/01/05 10:33:38;;;;;;;26.55;4.35;;;;;;;3.63;100.00;100302.25;10461028;28;20063;-57
2022/01/05 10:39:01;;;;;;;9.98;2.65;;;;;;;3.70;100.00;100312.34;10460423;28;20052;-56
2022/01/05 10:44:23;;;;;;;22.90;4.32;;;;;;;3.80;100.00;100299.03;10460805;28;20055;-59
2022/01/05 10:49:32;;;;;;;;;;;;;;;3.85;100.00;100326.47;10461485;28;20045;-59
2022/01/05 10:54:35;;;;;;;22.13;4.38;;;;;;;3.98;100.00;100332.00;10461241;28;19928;-58
2022/01/05 10:59:42;;;;;;;21.95;4.15;;;;;;;4.06;100.00;100331.72;10460457;28;20045;-59
2022/01/05 11:04:44;;;;;;;24.48;5.03;;;;;;;4.05;100.00;100319.66;10460361;28;20131;-57
2022/01/05 11:09:55;;;;;;;22.15;3.65;;;;;;;4.09;100.00;100347.16;10459801;28;20413;-58
2022/01/05 11:15:29;;;;;;;24.48;4.50;;;;;;;4.39;100.00;100346.91;10460241;28;20053;-57
2022/01/05 11:20:31;;;;;;;25.60;4.03;;;;;;;4.35;100.00;100363.47;10459807;28;20547;-59
2022/01/05 11:25:36;;;;;;;17.88;4.30;;;;;;;4.20;100.00;100364.88;10459770;28;20049;-59
2022/01/05 11:30:39;;;;;;;23.23;4.90;;;;;;;4.20;100.00;100360.56;10458042;28;20061;-59
2022/01/05 11:35:41;;;;;;;28.40;4.63;;;;;;;4.34;100.00;100341.03;10458033;28;20105;-57
2022/01/05 11:40:55;;;;;;;20.33;3.40;;;;;;;4.46;100.00;100361.31;10457810;28;20523;-60
2022/01/05 11:45:57;;;;;;;26.92;4.45;;;;;;;4.53;100.00;100386.09;10462331;28;20056;-57
2022/01/05 11:51:04;;;;;;;22.80;3.88;;;;;;;4.69;100.00;100381.16;10467882;28;20049;-59
2022/01/05 11:56:11;;;;;;;30.00;4.43;;;;;;;4.57;100.00;100403.22;10458464;28;20055;-59
2022/01/05 12:01:13;;;;;;;25.40;5.07;;;;;;;4.46;100.00;100400.19;10458669;28;20052;-58
2022/01/05 12:06:16;;;;;;;16.00;3.40;;;;;;;4.56;100.00;100414.50;10457956;28;20052;-58
2022/01/05 12:11:33;;;;;;;17.00;5.35;;;;;;;4.54;100.00;100416.31;10458074;28;20055;-58
2022/01/05 12:17:08;;;;;;;20.05;3.28;;;;;;;4.63;100.00;100420.28;10457705;28;20382;-57
2022/01/05 12:22:19;;;;;;;17.30;2.90;;;;;;;4.71;100.00;100425.16;10452010;28;20048;-59
2022/01/05 12:27:25;;;;;;;17.77;3.70;;;;;;;4.81;100.00;100439.47;10467662;28;20049;-59
2022/01/05 12:32:38;;;;;;;20.58;4.90;;;;;;;4.74;100.00;100438.00;10457522;28;20045;-58
2022/01/05 12:37:44;;;;;;;12.45;2.72;;;;;;;4.75;100.00;100442.31;10457112;28;20045;-59
2022/01/05 12:42:49;;;;;;;17.15;3.20;;;;;;;4.79;100.00;100442.13;10456767;28;20056;-55
2022/01/05 12:47:51;;;;;;;19.92;3.97;;;;;;;4.89;100.00;100452.97;10457304;28;20067;-58
2022/01/05 12:52:54;;;;;;;27.02;4.85;;;;;;;4.74;100.00;100456.16;10456424;28;20056;-56
2022/01/05 12:57:56;;;;;;;15.40;3.05;;;;;;;4.68;100.00;100461.59;10455453;28;20053;-58
2022/01/05 13:02:59;;;;;;;14.98;4.43;;;;;;;4.82;100.00;100473.16;10455915;28;20048;-58
2022/01/05 13:08:06;;;;;;;26.48;4.47;;;;;;;4.62;100.00;100465.25;10467255;28;20405;-58
2022/01/05 13:13:09;;;;;;;19.55;3.30;;;;;;;4.65;100.00;100489.31;10456425;28;20063;-59
2022/01/05 13:18:11;;;;;;;14.18;3.90;;;;;;;4.65;100.00;100465.97;10455966;28;20052;-58
2022/01/05 13:23:14;;;;;;;14.98;3.28;;;;;;;4.78;100.00;100488.88;10455005;28;20045;-58
2022/01/05 13:28:17;;;;;;;28.20;5.03;;;;;;;4.84;100.00;100505.06;10455770;28;20063;-57
2022/01/05 13:33:19;;;;;;;27.88;4.88;;;;;;;4.90;100.00;100513.50;10458860;28;20049;-60
2022/01/05 13:38:22;;;;;;;20.88;3.85;;;;;;;5.18;100.00;100502.91;10463121;28;20049;-59
2022/01/05 13:43:27;;;;;;;17.63;4.35;;;;;;;4.97;100.00;100527.91;10463988;28;20065;-57
2022/01/05 13:48:30;;;;;;;18.63;3.85;;;;;;;4.99;100.00;100531.28;10475408;28;20048;-58
2022/01/05 13:53:33;;;;;;;18.40;3.45;;;;;;;4.90;100.00;100529.91;10462071;28;20375;-58
2022/01/05 13:58:39;;;;;;;19.23;4.18;;;;;;;4.84;100.00;100543.97;10463184;28;20049;-59
2022/01/05 14:03:43;;;;;;;20.63;3.80;;;;;;;4.94;100.00;100551.38;10462770;28;20040;-58
2022/01/05 14:08:50;;;;;;;17.77;4.00;;;;;;;4.84;100.00;100563.84;10462662;28;20049;-58
2022/01/05 14:13:56;;;;;;;24.23;4.97;;;;;;;4.94;100.00;100585.13;10461605;28;20045;-59
2022/01/05 14:19:05;;;;;;;17.75;4.00;;;;;;;4.95;100.00;100579.88;10462116;28;20045;-57
2022/01/05 14:24:09;;;;;;;15.18;3.50;;;;;;;4.85;100.00;100583.72;10475617;28;20049;-58
2022/01/05 14:29:11;;;;;;;17.27;2.47;;;;;;;4.86;100.00;100597.53;10462657;28;20051;-59
2022/01/05 14:34:22;;;;;;;19.10;2.63;;;;;;;4.88;100.00;100606.94;10460608;28;20424;-58
2022/01/05 14:39:41;;;;;;;19.60;4.05;;;;;;;4.80;100.00;100607.22;10461396;28;20123;-59
2022/01/05 14:44:50;;;;;;;16.60;3.03;;;;;;;4.74;100.00;100614.38;10460160;28;20056;-58
2022/01/05 14:50:09;;;;;;;19.98;3.15;;;;;;;4.87;100.00;100628.59;10461191;28;20045;-58
2022/01/05 14:55:12;;;;;;;20.65;4.07;;;;;;;4.87;100.00;100635.53;10461051;28;20049;-59
2022/01/05 15:00:15;;;;;;;20.20;3.45;;;;;;;4.87;100.00;100649.34;10460932;28;20045;-60
2022/01/05 15:05:17;;;;;;;20.80;3.85;;;;;;;4.87;100.00;100659.72;10476587;28;20154;-57
2022/01/05 15:10:20;;;;;;;24.50;3.80;;;;;;;4.80;100.00;100661.69;10459024;28;20441;-57
2022/01/05 15:15:22;;;;;;;22.05;3.10;;;;;;;4.66;100.00;100658.75;10460329;28;20057;-59
2022/01/05 15:20:24;;;;;;;21.42;4.40;;;;;;;4.73;100.00;100667.16;10459693;28;20044;-58
2022/01/05 15:25:27;;;;;;;18.83;3.75;;;;;;;4.68;100.00;100687.22;10459641;28;20049;-59
2022/01/05 15:30:29;;;;;;;15.82;2.65;;;;;;;4.63;100.00;100693.41;10459135;28;20052;-60
2022/01/05 15:35:33;;;;;;;22.80;3.10;;;;;;;4.64;100.00;100689.94;10459214;28;20052;-58
2022/01/05 15:40:36;;;;;;;15.27;3.50;;;;;;;4.63;100.00;100710.72;10458626;28;20401;-58
2022/01/05 15:45:38;;;;;;;12.10;2.97;;;;;;;4.57;100.00;100704.00;10461319;28;20056;-59
2022/01/05 15:50:41;;;;;;;21.98;3.85;;;;;;;4.57;100.00;100719.56;10458751;28;20055;-58
2022/01/05 15:55:51;;;;;;;19.20;4.00;;;;;;;4.53;100.00;100736.09;10457506;28;20057;-59
2022/01/05 16:06:19;;;;;;;23.85;4.55;;;;;;;4.70;100.00;100761.47;10458539;28;20053;-57
2022/01/05 16:11:22;;;;;;;25.05;3.58;;;;;;;4.70;100.00;100769.25;10457894;28;20056;-58
2022/01/05 16:16:25;;;;;;;32.80;5.32;;;;;;;4.70;100.00;100779.63;10457801;28;20076;-59
2022/01/05 16:21:28;;;;;;;24.80;4.75;;;;;;;4.58;100.00;100782.63;10460911;28;20064;-57
2022/01/05 16:26:30;;;;;;;24.52;4.75;;;;;;;4.58;100.00;100791.25;10465959;28;20140;-58
2022/01/05 16:31:33;;;;;;;31.35;5.03;;;;;;;4.53;100.00;100800.09;10457067;28;20489;-59
2022/01/05 16:36:35;;;;;;;27.77;5.10;;;;;;;4.56;100.00;100802.59;10457065;28;20055;-58
2022/01/05 16:41:40;;;;;;;31.10;8.68;;;;;;;4.53;100.00;100813.91;10456755;28;20064;-58
2022/01/05 16:46:44;;;;;;;33.03;5.00;;;;;;;4.71;100.00;100828.03;10457205;28;20049;-53
2022/01/05 16:51:46;;;;;;;28.70;5.68;;;;;;;4.60;100.00;100838.72;10456736;28;20059;-56
2022/01/05 17:01:51;;;;;;;28.88;5.35;;;;;;;4.85;100.00;100861.28;10467596;28;20071;-57
2022/01/05 17:06:56;;;;;;;25.88;4.72;;;;;;;4.89;100.00;100859.44;10455840;28;20048;-54
2022/01/05 17:12:00;;;;;;;29.13;4.18;;;;;;;4.90;100.00;100879.31;10465121;28;20048;-58
2022/01/05 17:17:04;;;;;;;28.17;5.03;;;;;;;4.85;100.00;100887.22;10464672;28;20049;-54
2022/01/05 17:22:08;;;;;;;27.98;5.05;;;;;;;4.79;100.00;100892.59;10464550;28;20055;-56
2022/01/05 17:27:11;;;;;;;29.55;4.90;;;;;;;4.79;100.00;100903.84;10463955;28;20045;-54
2022/01/05 17:32:13;;;;;;;23.92;4.25;;;;;;;4.87;100.00;100907.94;10464209;28;20049;-58
2022/01/05 17:37:16;;;;;;;31.85;5.57;;;;;;;4.82;100.00;100915.88;10463824;28;20485;-59
2022/01/05 17:42:18;;;;;;;33.80;5.13;;;;;;;4.82;100.00;100908.06;10463796;28;20076;-58
2022/01/05 17:47:22;;;;;;;30.60;4.72;;;;;;;4.72;100.00;100923.06;10463376;28;20057;-54
2022/01/05 17:52:25;;;;;;;31.23;5.63;;;;;;;4.61;100.00;100931.19;10463366;28;20045;-54
2022/01/05 17:57:27;;;;;;;29.70;4.30;;;;;;;4.54;100.00;100939.19;10463542;28;20060;-57
2022/01/05 18:02:30;;;;;;;33.13;5.78;;;;;;;4.51;100.00;100953.13;10462989;28;20045;-58
2022/01/05 18:07:32;;;;;;;23.52;4.03;;;;;;;4.50;100.00;100951.41;10462808;28;20052;-56
2022/01/05 18:12:34;;;;;;;26.60;4.88;;;;;;;4.46;100.00;100968.81;10462876;28;20076;-55
2022/01/05 18:17:38;;;;;;;29.17;5.78;;;;;;;4.47;100.00;100978.28;10461965;28;20053;-57
2022/01/05 18:22:42;;;;;;;28.20;4.97;;;;;;;4.39;100.00;100982.84;10461433;28;20405;-58
2022/01/05 18:27:45;;;;;;;17.77;3.83;;;;;;;4.44;100.00;100988.75;10461887;28;20060;-57
2022/01/05 18:32:49;;;;;;;25.58;5.00;;;;;;;4.49;100.00;100991.22;10461607;28;20500;-54
2022/01/05 18:37:52;;;;;;;26.50;5.32;;;;;;;4.47;100.00;101006.81;10461653;28;20064;-52
2022/01/05 18:42:54;;;;;;;25.20;5.82;;;;;;;4.47;100.00;101024.97;10461787;28;20049;-57
2022/01/05 18:47:57;;;;;;;23.05;4.63;;;;;;;4.52;100.00;101016.19;10461051;28;20045;-57
2022/01/05 18:52:59;;;;;;;17.02;3.75;;;;;;;4.54;100.00;101033.41;10460593;28;20056;-57
2022/01/05 18:58:02;;;;;;;23.75;6.43;;;;;;;4.62;100.00;101044.44;10461010;28;20379;-58
2022/01/05 19:03:05;;;;;;;22.25;4.63;;;;;;;4.63;100.00;101061.66;10469217;28;20520;-55
2022/01/05 19:08:10;;;;;;;14.68;3.10;;;;;;;4.60;100.00;101071.28;10460783;28;20048;-57
2022/01/05 19:13:12;;;;;;;19.65;5.00;;;;;;;4.44;100.00;101081.25;10460242;28;20045;-56
2022/01/05 19:18:15;;;;;;;19.00;2.55;;;;;;;4.38;100.00;101082.25;10460034;28;20052;-56
2022/01/05 19:23:18;;;;;;;18.55;5.22;;;;;;;4.27;100.00;101097.25;10459702;28;20053;-53
2022/01/05 19:28:21;;;;;;;16.35;4.68;;;;;;;4.06;100.00;101098.66;10460738;28;20056;-54
2022/01/05 19:33:29;;;;;;;10.60;3.13;;;;;;;3.98;100.00;101108.34;10459526;28;20076;-58
2022/01/05 19:38:32;;;;;;;15.07;3.17;;;;;;;4.15;100.00;101134.69;10462562;28;20076;-58
2022/01/05 19:43:34;;;;;;;7.55;2.90;;;;;;;4.18;100.00;101118.22;10464648;28;20421;-55
2022/01/05 19:48:37;;;;;;;12.50;3.90;;;;;;;4.16;100.00;101130.38;10458805;28;20567;-56
2022/01/05 19:53:47;;;;;;;13.07;4.00;;;;;;;4.08;100.00;101125.38;10459199;28;20102;-57
2022/01/05 19:58:51;;;;;;;12.40;3.00;;;;;;;4.03;100.00;101122.88;10456961;28;20045;-58
2022/01/05 20:03:53;;;;;;;10.77;2.80;;;;;;;3.80;100.00;101140.72;10458771;28;20055;-57
2022/01/05 20:08:56;;;;;;;13.63;3.60;;;;;;;3.79;100.00;101141.63;10458282;28;20055;-57
2022/01/05 20:13:58;;;;;;;17.25;2.50;;;;;;;3.76;100.00;101141.69;10457861;28;20055;-58
2022/01/05 20:19:02;;;;;;;17.10;4.68;;;;;;;3.57;100.00;101146.47;10460926;28;20064;-55
2022/01/05 20:24:05;;;;;;;25.33;7.43;;;;;;;3.68;100.00;101160.00;10462390;28;20401;-56
2022/01/05 20:29:08;;;;;;;45.38;11.82;;;;;;;3.51;100.00;101160.38;10457523;28;20071;-58
2022/01/05 20:34:12;;;;;;;25.58;6.70;;;;;;;3.55;100.00;101159.44;10457222;28;20446;-56
2022/01/05 20:39:14;;;;;;;18.80;5.65;;;;;;;3.57;100.00;101170.59;10457196;28;20053;-56
2022/01/05 20:44:16;;;;;;;17.73;5.10;;;;;;;3.46;100.00;101182.94;10455853;28;20052;-57
2022/01/05 20:49:19;;;;;;;20.65;4.13;;;;;;;3.59;100.00;101171.41;10456802;28;20049;-54
2022/01/05 20:54:21;;;;;;;21.08;3.15;;;;;;;3.61;100.00;101180.00;10457256;28;20055;-52
2022/01/05 20:59:24;;;;;;;31.67;7.70;;;;;;;3.42;100.00;101187.31;10464660;28;20053;-57
2022/01/05 21:04:26;;;;;;;24.70;9.25;;;;;;;3.33;100.00;101200.47;10457382;28;20060;-55
2022/01/05 21:09:29;;;;;;;19.17;5.43;;;;;;;3.32;100.00;101211.69;10456403;28;20056;-58
2022/01/05 21:14:31;;;;;;;23.02;7.55;;;;;;;3.38;100.00;101206.41;10456276;28;20053;-56
2022/01/05 21:19:33;;;;;;;29.73;6.25;;;;;;;3.23;100.00;101206.69;10456172;28;20045;-57
2022/01/05 21:24:36;;;;;;;22.73;4.03;;;;;;;3.28;100.00;101220.41;10455777;28;20579;-55
2022/01/05 21:29:39;;;;;;;19.98;4.65;;;;;;;3.12;100.00;101227.63;10455791;28;20056;-57
2022/01/05 21:34:41;;;;;;;22.15;5.28;;;;;;;3.04;100.00;101229.50;10455771;28;20056;-58
2022/01/05 21:39:43;;;;;;;20.40;3.92;;;;;;;3.05;100.00;101233.81;10455639;28;20417;-56
2022/01/05 21:44:46;;;;;;;29.88;6.40;;;;;;;3.02;100.00;101232.13;10456085;28;20057;-55
2022/01/05 21:49:48;;;;;;;17.17;3.00;;;;;;;3.05;100.00;101238.97;10455478;28;20394;-55
2022/01/05 21:54:51;;;;;;;23.02;4.32;;;;;;;2.97;100.00;101239.94;10459497;28;20053;-56
2022/01/05 21:59:53;;;;;;;21.63;4.38;;;;;;;3.14;100.00;101244.84;10463193;28;20060;-53
2022/01/05 22:04:56;;;;;;;28.05;3.75;;;;;;;3.15;100.00;101254.28;10461879;28;20049;-56
2022/01/05 22:09:58;;;;;;;23.25;4.25;;;;;;;2.95;100.00;101269.34;10462686;28;20060;-57
2022/01/05 22:15:00;;;;;;;17.48;4.10;;;;;;;2.96;100.00;101277.06;10462851;28;20053;-55
2022/01/05 22:20:05;;;;;;;27.50;4.80;;;;;;;2.71;100.00;101278.38;10462293;28;20049;-55
2022/01/05 22:25:07;;;;;;;17.00;4.47;;;;;;;2.78;100.00;101286.00;10462047;28;20481;-55
2022/01/05 22:30:11;;;;;;;24.83;4.93;;;;;;;2.72;100.00;101293.88;10462195;28;20056;-58
2022/01/05 22:35:13;;;;;;;21.70;4.22;;;;;;;2.74;100.00;101311.94;10461766;28;20049;-55
2022/01/05 22:40:15;;;;;;;29.20;4.32;;;;;;;2.71;100.00;101310.25;10460905;28;20052;-56
2022/01/05 22:45:18;;;;;;;26.13;4.55;;;;;;;2.63;100.00;101314.69;10461431;28;20053;-58
2022/01/05 22:50:21;;;;;;;30.05;5.20;;;;;;;2.69;100.00;101332.72;10459598;28;20049;-56
2022/01/05 22:55:23;;;;;;;33.42;5.55;;;;;;;2.74;100.00;101325.72;10460853;28;20417;-58
2022/01/05 23:00:29;;;;;;;24.48;4.85;;;;;;;2.75;100.00;101322.25;10459653;28;20060;-58
2022/01/05 23:05:32;;;;;;;35.67;5.32;;;;;;;2.74;100.00;101327.44;10459868;28;20542;-56
2022/01/05 23:10:35;;;;;;;24.52;5.05;;;;;;;2.69;100.00;101330.13;10459488;28;20044;-53
2022/01/05 23:15:38;;;;;;;32.15;6.13;;;;;;;2.82;100.00;101337.66;10458871;28;20409;-55